Time,TemperatureF,DewpointF,PressureIn,WindDirection,WindDirectionDegrees,WindSpeedMPH,WindSpeedGustMPH,Humidity,HourlyPrecipIn,Conditions,Clouds,dailyrainin,SoftwareType,DateUTC
2013-06-25 00:02:00,66.6,65.3,29.85,SSE,147,5.0,8.0,96,0.04,,,0.04,meteohub,2013-06-25 05:02:00,
2013-06-25 00:07:00,66.6,65.3,29.86,SSE,150,9.0,10.0,96,0.10,,,0.04,meteohub,2013-06-25 05:07:00,
2013-06-25 00:12:00,66.4,64.9,29.86,SSE,156,10.0,12.0,95,0.14,,,0.14,meteohub,2013-06-25 05:12:00,
2013-06-25 00:17:00,66.4,64.9,29.86,SE,135,2.0,12.0,95,0.17,,,0.17,meteohub,2013-06-25 05:17:00,
2013-06-25 00:22:00,66.4,64.9,29.92,North,356,10.0,12.0,95,0.18,,,0.18,meteohub,2013-06-25 05:22:00,
2013-06-25 00:27:00,66.0,65.1,29.93,NW,322,13.0,28.0,97,0.20,,,0.20,meteohub,2013-06-25 05:27:00,
2013-06-25 00:32:00,65.7,64.8,29.91,WSW,249,5.0,28.0,97,0.64,,,0.64,meteohub,2013-06-25 05:32:00,
2013-06-25 00:37:00,65.1,64.2,29.91,SSE,164,3.0,28.0,97,0.79,,,0.79,meteohub,2013-06-25 05:37:00,
2013-06-25 00:42:00,64.9,64.0,29.88,SSE,158,4.0,18.0,97,0.86,,,0.86,meteohub,2013-06-25 05:42:00,
2013-06-25 00:47:00,64.9,64.0,29.87,SE,131,4.0,12.0,97,0.89,,,0.89,meteohub,2013-06-25 05:47:00,
2013-06-25 00:52:00,64.9,64.0,29.87,SE,141,5.0,5.0,97,0.89,,,0.90,meteohub,2013-06-25 05:52:00,
2013-06-25 00:58:00,64.9,64.0,29.87,South,173,5.0,6.0,97,0.89,,,0.91,meteohub,2013-06-25 05:58:00,
2013-06-25 01:03:00,64.8,64.2,29.86,SSE,156,6.0,7.0,98,0.88,,,0.92,meteohub,2013-06-25 06:03:00,
2013-06-25 01:08:00,64.9,64.4,29.85,ESE,113,8.0,9.0,98,0.82,,,0.92,meteohub,2013-06-25 06:08:00,
2013-06-25 01:13:00,64.9,64.4,29.84,SE,138,6.0,12.0,98,0.76,,,0.92,meteohub,2013-06-25 06:13:00,
2013-06-25 01:18:00,64.8,64.2,29.84,SSE,149,4.0,12.0,98,0.75,,,0.93,meteohub,2013-06-25 06:18:00,
2013-06-25 01:23:00,64.8,64.2,29.85,SSW,211,3.0,12.0,98,0.75,,,0.93,meteohub,2013-06-25 06:23:00,
2013-06-25 01:28:00,64.8,64.2,29.83,ESE,121,2.0,12.0,98,0.59,,,0.93,meteohub,2013-06-25 06:28:00,
2013-06-25 01:33:00,64.8,64.2,29.81,East,95,3.0,8.0,98,0.23,,,0.93,meteohub,2013-06-25 06:33:00,
2013-06-25 01:38:00,64.8,64.2,29.82,SSW,207,3.0,5.0,98,0.10,,,0.93,meteohub,2013-06-25 06:38:00,
2013-06-25 01:47:00,64.8,64.2,29.85,SW,229,1.0,5.0,98,0.05,,,0.94,meteohub,2013-06-25 06:47:00,
2013-06-25 01:52:00,64.8,64.2,29.86,WSW,242,0.0,4.0,98,0.04,,,0.94,meteohub,2013-06-25 06:52:00,
2013-06-25 01:57:00,64.8,64.2,29.84,SSW,213,2.0,3.0,98,0.03,,,0.94,meteohub,2013-06-25 06:57:00,
2013-06-25 02:02:00,64.8,64.2,29.87,NW,307,2.0,3.0,98,0.02,,,0.94,meteohub,2013-06-25 07:02:00,
2013-06-25 02:07:00,64.8,64.2,29.88,West,281,3.0,3.0,98,0.02,,,0.94,meteohub,2013-06-25 07:07:00,
2013-06-25 02:12:00,64.8,64.2,29.87,NNE,12,2.0,4.0,98,0.05,,,0.97,meteohub,2013-06-25 07:12:00,
2013-06-25 02:17:00,64.9,64.4,29.85,NE,50,5.0,7.0,98,0.05,,,0.98,meteohub,2013-06-25 07:17:00,
2013-06-25 02:22:00,64.8,64.2,29.86,West,275,0.0,8.0,98,0.06,,,0.99,meteohub,2013-06-25 07:22:00,
2013-06-25 02:27:00,64.8,64.2,29.84,ENE,61,5.0,8.0,98,0.08,,,1.01,meteohub,2013-06-25 07:27:00,
2013-06-25 02:32:00,64.6,64.0,29.85,WNW,295,3.0,9.0,98,0.11,,,1.04,meteohub,2013-06-25 07:32:00,
2013-06-25 02:37:00,64.6,64.0,29.85,SSW,209,3.0,9.0,98,0.12,,,1.06,meteohub,2013-06-25 07:37:00,
2013-06-25 02:42:00,64.2,63.7,29.84,SE,138,7.0,9.0,98,0.14,,,1.08,meteohub,2013-06-25 07:42:00,
2013-06-25 02:47:00,64.2,63.7,29.85,SSW,198,7.0,8.0,98,0.16,,,1.10,meteohub,2013-06-25 07:47:00,
2013-06-25 02:52:00,64.0,63.5,29.83,SE,138,5.0,12.0,98,0.25,,,1.19,meteohub,2013-06-25 07:52:00,
2013-06-25 02:57:00,64.0,63.5,29.84,SSE,168,3.0,12.0,98,0.25,,,1.19,meteohub,2013-06-25 07:57:00,
2013-06-25 03:02:00,63.9,63.3,29.84,South,191,6.0,12.0,98,0.25,,,1.19,meteohub,2013-06-25 08:02:00,
2013-06-25 03:07:00,64.0,63.5,29.84,SE,128,6.0,14.0,98,0.25,,,1.20,meteohub,2013-06-25 08:07:00,
2013-06-25 03:12:00,63.9,63.3,29.83,SSE,160,7.0,14.0,98,0.24,,,1.21,meteohub,2013-06-25 08:12:00,
2013-06-25 03:17:00,63.9,63.3,29.83,SE,138,4.0,14.0,98,0.23,,,1.22,meteohub,2013-06-25 08:17:00,
2013-06-25 03:22:00,63.9,63.3,29.83,SSE,159,5.0,13.0,98,0.24,,,1.23,meteohub,2013-06-25 08:22:00,
2013-06-25 03:27:00,63.9,63.3,29.84,SSE,154,5.0,9.0,98,0.21,,,1.23,meteohub,2013-06-25 08:27:00,
2013-06-25 03:32:00,63.9,63.3,29.84,East,96,2.0,8.0,98,0.19,,,1.23,meteohub,2013-06-25 08:32:00,
2013-06-25 03:37:00,63.9,63.3,29.84,East,93,2.0,8.0,98,0.16,,,1.23,meteohub,2013-06-25 08:37:00,
2013-06-25 03:42:00,63.7,63.1,29.84,ESE,116,4.0,6.0,98,0.15,,,1.23,meteohub,2013-06-25 08:42:00,
2013-06-25 03:47:00,63.7,63.1,29.85,SW,223,3.0,8.0,98,0.07,,,1.23,meteohub,2013-06-25 08:47:00,
2013-06-25 03:52:00,63.7,63.1,29.86,WNW,289,1.0,11.0,98,0.04,,,1.23,meteohub,2013-06-25 08:52:00,
2013-06-25 03:57:00,63.7,63.1,29.84,NE,48,3.0,11.0,98,0.09,,,1.25,meteohub,2013-06-25 08:57:00,
2013-06-25 04:02:00,63.7,63.1,29.86,West,273,0.0,10.0,98,0.14,,,1.33,meteohub,2013-06-25 09:02:00,
2013-06-25 04:07:00,63.7,63.1,29.85,NNW,329,1.0,6.0,98,0.22,,,1.42,meteohub,2013-06-25 09:07:00,
2013-06-25 04:12:00,63.7,63.1,29.86,WSW,253,0.0,6.0,98,0.21,,,1.43,meteohub,2013-06-25 09:12:00,
2013-06-25 04:17:00,63.7,63.1,29.87,SE,135,1.0,6.0,98,0.28,,,1.51,meteohub,2013-06-25 09:17:00,
2013-06-25 04:22:00,63.7,63.1,29.87,SE,145,0.0,6.0,98,0.29,,,1.52,meteohub,2013-06-25 09:22:00,
2013-06-25 05:18:00,63.9,63.3,29.86,West,279,2.0,4.0,98,0.15,,,1.66,meteohub,2013-06-25 10:18:00,
2013-06-25 06:58:00,64.2,63.7,29.82,SW,234,3.0,9.0,98,0.00,,,1.78,meteohub,2013-06-25 11:58:00,
2013-06-25 07:08:00,64.2,63.7,29.84,SW,230,2.0,11.0,98,0.00,,,1.78,meteohub,2013-06-25 12:08:00,
2013-06-25 07:13:00,64.2,63.7,29.83,WSW,256,0.0,9.0,98,0.00,,,1.78,meteohub,2013-06-25 12:13:00,
2013-06-25 07:19:00,64.2,63.7,29.83,SSW,198,2.0,9.0,98,0.00,,,1.78,meteohub,2013-06-25 12:19:00,
2013-06-25 07:24:00,64.2,63.7,29.84,SSW,205,0.0,7.0,98,0.00,,,1.78,meteohub,2013-06-25 12:24:00,
2013-06-25 07:29:00,64.0,63.5,29.85,WSW,246,1.0,4.0,98,0.00,,,1.78,meteohub,2013-06-25 12:29:00,
2013-06-25 07:34:00,64.0,63.5,29.86,WSW,254,4.0,4.0,98,0.00,,,1.78,meteohub,2013-06-25 12:34:00,
2013-06-25 07:39:00,64.2,63.7,29.86,SSW,211,5.0,5.0,98,0.00,,,1.78,meteohub,2013-06-25 12:39:00,
2013-06-25 07:44:00,64.2,63.7,29.85,South,174,6.0,7.0,98,0.00,,,1.78,meteohub,2013-06-25 12:44:00,
2013-06-25 07:49:00,64.2,63.7,29.84,South,189,5.0,9.0,98,0.00,,,1.78,meteohub,2013-06-25 12:49:00,
2013-06-25 07:54:00,64.0,63.5,29.84,SSW,193,9.0,9.0,98,0.01,,,1.79,meteohub,2013-06-25 12:54:00,
2013-06-25 07:59:00,64.2,63.7,29.86,SSW,194,6.0,12.0,98,0.02,,,1.80,meteohub,2013-06-25 12:59:00,
2013-06-25 08:04:00,64.0,63.5,29.87,SW,231,6.0,12.0,98,0.03,,,1.81,meteohub,2013-06-25 13:04:00,
2013-06-25 08:09:00,64.0,63.5,29.87,WSW,246,3.0,13.0,98,0.03,,,1.81,meteohub,2013-06-25 13:09:00,
2013-06-25 08:14:00,64.0,63.5,29.88,SE,130,3.0,13.0,98,0.04,,,1.82,meteohub,2013-06-25 13:14:00,
2013-06-25 08:19:00,64.0,63.5,29.88,SSE,168,10.0,13.0,98,0.04,,,1.82,meteohub,2013-06-25 13:19:00,
2013-06-25 08:25:00,64.0,63.5,29.88,SE,145,11.0,13.0,98,0.06,,,1.84,meteohub,2013-06-25 13:25:00,
2013-06-25 08:30:00,64.0,63.5,29.89,South,180,6.0,14.0,98,0.07,,,1.85,meteohub,2013-06-25 13:30:00,
2013-06-25 08:36:00,64.0,63.5,29.89,SW,216,2.0,14.0,98,0.08,,,1.86,meteohub,2013-06-25 13:36:00,
2013-06-25 08:42:00,64.0,63.5,29.87,WSW,253,1.0,9.0,98,0.11,,,1.89,meteohub,2013-06-25 13:42:00,
2013-06-25 09:00:00,64.0,63.5,29.85,SSW,213,2.0,3.0,98,0.13,,,1.93,meteohub,2013-06-25 14:00:00,
2013-06-25 09:07:00,64.0,63.5,29.83,SSE,149,7.0,7.0,98,0.13,,,1.94,meteohub,2013-06-25 14:07:00,
2013-06-25 09:11:00,64.0,63.5,29.82,South,187,8.0,11.0,98,0.13,,,1.95,meteohub,2013-06-25 14:11:00,
2013-06-25 09:18:00,64.0,63.5,29.81,ESE,121,8.0,13.0,98,0.12,,,1.95,meteohub,2013-06-25 14:18:00,
2013-06-25 09:24:00,64.2,63.7,29.79,SSE,153,8.0,13.0,98,0.11,,,1.95,meteohub,2013-06-25 14:24:00,
2013-06-25 09:29:00,64.2,63.7,29.78,SE,137,14.0,14.0,98,0.11,,,1.96,meteohub,2013-06-25 14:29:00,
2013-06-25 09:34:00,64.4,63.9,29.76,SSE,164,11.0,12.0,98,0.09,,,1.96,meteohub,2013-06-25 14:34:00,
2013-06-25 09:39:00,64.6,64.0,29.76,SE,141,10.0,14.0,98,0.08,,,1.96,meteohub,2013-06-25 14:39:00,
2013-06-25 09:44:00,64.8,64.2,29.78,South,176,5.0,14.0,98,0.07,,,1.96,meteohub,2013-06-25 14:44:00,
2013-06-25 09:49:00,64.9,64.4,29.77,SE,128,6.0,14.0,98,0.05,,,1.96,meteohub,2013-06-25 14:49:00,
2013-06-25 09:54:00,65.1,64.6,29.77,SSE,156,9.0,11.0,98,0.04,,,1.96,meteohub,2013-06-25 14:54:00,
2013-06-25 09:59:00,65.1,64.6,29.76,SW,216,7.0,12.0,98,0.03,,,1.96,meteohub,2013-06-25 14:59:00,
2013-06-25 10:04:00,65.5,64.9,29.76,SSE,154,12.0,13.0,98,0.03,,,1.96,meteohub,2013-06-25 15:04:00,
2013-06-25 10:09:00,65.5,64.9,29.75,SSE,152,10.0,14.0,98,0.01,,,1.96,meteohub,2013-06-25 15:09:00,
2013-06-25 10:14:00,65.5,64.9,29.76,South,187,14.0,16.0,98,0.01,,,1.96,meteohub,2013-06-25 15:14:00,
2013-06-25 10:19:00,65.5,64.9,29.77,SSE,147,8.0,18.0,98,0.01,,,1.96,meteohub,2013-06-25 15:19:00,
2013-06-25 10:24:00,65.7,65.1,29.79,SSE,166,3.0,19.0,98,0.00,,,1.96,meteohub,2013-06-25 15:24:00,
2013-06-25 10:29:00,65.8,65.3,29.82,NW,315,5.0,19.0,98,0.00,,,1.96,meteohub,2013-06-25 15:29:00,
2013-06-25 10:34:00,65.8,65.3,29.83,NW,313,3.0,16.0,98,0.00,,,1.96,meteohub,2013-06-25 15:34:00,
2013-06-25 10:39:00,66.0,65.5,29.83,NW,310,4.0,16.0,98,0.00,,,1.96,meteohub,2013-06-25 15:39:00,
2013-06-25 10:44:00,66.2,65.7,29.84,NNW,331,3.0,7.0,98,0.00,,,1.96,meteohub,2013-06-25 15:44:00,
2013-06-25 10:49:00,66.4,65.8,29.84,NNW,333,4.0,7.0,98,0.00,,,1.96,meteohub,2013-06-25 15:49:00,
2013-06-25 10:54:00,66.6,66.0,29.84,NNW,346,4.0,8.0,98,0.00,,,1.96,meteohub,2013-06-25 15:54:00,
2013-06-25 10:59:00,66.6,66.0,29.84,NNW,338,5.0,8.0,98,0.00,,,1.96,meteohub,2013-06-25 15:59:00,
2013-06-25 11:04:00,66.7,66.2,29.83,NNW,336,2.0,8.0,98,0.00,,,1.96,meteohub,2013-06-25 16:04:00,
2013-06-25 11:09:00,66.9,66.4,29.84,NNW,332,1.0,6.0,98,0.00,,,1.96,meteohub,2013-06-25 16:09:00,
2013-06-25 11:14:00,67.3,66.7,29.84,NW,318,1.0,6.0,98,0.00,,,1.96,meteohub,2013-06-25 16:14:00,
2013-06-25 11:19:00,67.5,66.9,29.84,NW,322,2.0,4.0,98,0.00,,,1.96,meteohub,2013-06-25 16:19:00,
2013-06-25 11:24:00,67.5,66.9,29.84,WNW,295,0.0,4.0,98,0.00,,,1.96,meteohub,2013-06-25 16:24:00,
2013-06-25 11:29:00,67.8,67.3,29.84,WNW,295,0.0,4.0,98,0.00,,,1.96,meteohub,2013-06-25 16:29:00,
2013-06-25 11:34:00,68.4,67.8,29.83,SSE,147,3.0,4.0,98,0.00,,,1.96,meteohub,2013-06-25 16:34:00,
2013-06-25 11:39:00,68.7,68.2,29.82,SSE,168,6.0,6.0,98,0.00,,,1.96,meteohub,2013-06-25 16:39:00,
2013-06-25 11:44:00,69.3,68.7,29.82,SE,144,3.0,9.0,98,0.00,,,1.96,meteohub,2013-06-25 16:44:00,
2013-06-25 11:49:00,69.3,68.7,29.83,South,189,6.0,10.0,98,0.00,,,1.96,meteohub,2013-06-25 16:49:00,
2013-06-25 11:54:00,70.2,69.6,29.83,West,265,2.0,10.0,98,0.00,,,1.96,meteohub,2013-06-25 16:54:00,
2013-06-25 11:59:00,70.9,70.3,29.83,SW,227,4.0,10.0,98,0.00,,,1.96,meteohub,2013-06-25 16:59:00,
2013-06-25 12:04:00,71.1,70.2,29.83,SSW,198,1.0,6.0,97,0.00,,,1.96,meteohub,2013-06-25 17:04:00,
2013-06-25 12:09:00,71.2,70.3,29.83,SE,138,3.0,5.0,97,0.00,,,1.96,meteohub,2013-06-25 17:09:00,
2013-06-25 12:15:00,71.2,70.3,29.83,SSE,168,3.0,5.0,97,0.00,,,1.96,meteohub,2013-06-25 17:15:00,
2013-06-25 12:20:00,71.8,70.9,29.83,SSW,193,4.0,4.0,97,0.00,,,1.96,meteohub,2013-06-25 17:20:00,
2013-06-25 12:25:00,72.7,71.8,29.83,WSW,248,1.0,4.0,97,0.00,,,1.96,meteohub,2013-06-25 17:25:00,
2013-06-25 12:30:00,73.8,72.3,29.83,WSW,242,0.0,5.0,95,0.00,,,1.96,meteohub,2013-06-25 17:30:00,
2013-06-25 12:35:00,74.3,71.4,29.84,West,268,1.0,5.0,91,0.00,,,1.96,meteohub,2013-06-25 17:35:00,
2013-06-25 12:40:00,75.4,72.0,29.84,WSW,258,4.0,6.0,89,0.00,,,1.96,meteohub,2013-06-25 17:40:00,
2013-06-25 12:45:00,75.9,71.4,29.84,SW,225,7.0,7.0,86,0.00,,,1.96,meteohub,2013-06-25 17:45:00,
2013-06-25 12:50:00,75.9,71.1,29.84,SW,223,7.0,11.0,85,0.00,,,1.96,meteohub,2013-06-25 17:50:00,
2013-06-25 12:55:00,75.7,70.5,29.84,SW,227,9.0,11.0,84,0.00,,,1.96,meteohub,2013-06-25 17:55:00,
2013-06-25 13:00:00,75.7,70.5,29.84,WSW,246,4.0,15.0,84,0.00,,,1.96,meteohub,2013-06-25 18:00:00,
2013-06-25 13:05:00,75.7,70.9,29.84,SW,225,5.0,15.0,85,0.00,,,1.96,meteohub,2013-06-25 18:05:00,
2013-06-25 13:10:00,75.4,70.5,29.84,WNW,287,9.0,15.0,85,0.00,,,1.96,meteohub,2013-06-25 18:10:00,
2013-06-25 13:15:00,75.2,70.0,29.83,West,277,6.0,12.0,84,0.00,,,1.96,meteohub,2013-06-25 18:15:00,
2013-06-25 13:20:00,75.7,70.9,29.83,SSW,212,3.0,16.0,85,0.00,,,1.96,meteohub,2013-06-25 18:20:00,
2013-06-25 13:25:00,76.3,72.1,29.83,WNW,284,6.0,16.0,87,0.00,,,1.96,meteohub,2013-06-25 18:25:00,
2013-06-25 13:30:00,76.3,70.7,29.83,West,279,8.0,16.0,83,0.00,,,1.96,meteohub,2013-06-25 18:30:00,
2013-06-25 13:35:00,76.3,71.1,29.82,West,281,5.0,13.0,84,0.00,,,1.96,meteohub,2013-06-25 18:35:00,
2013-06-25 13:40:00,76.8,71.6,29.82,West,261,6.0,13.0,84,0.00,,,1.96,meteohub,2013-06-25 18:40:00,
2013-06-25 13:45:00,77.2,72.0,29.82,SW,231,7.0,13.0,84,0.00,,,1.96,meteohub,2013-06-25 18:45:00,
2013-06-25 13:50:00,77.7,72.1,29.82,SW,227,9.0,13.0,83,0.00,,,1.96,meteohub,2013-06-25 18:50:00,
2013-06-25 13:55:00,78.3,72.3,29.81,WSW,239,9.0,13.0,82,0.00,,,1.96,meteohub,2013-06-25 18:55:00,
2013-06-25 14:00:00,77.7,71.4,29.81,WNW,284,7.0,13.0,81,0.00,,,1.96,meteohub,2013-06-25 19:00:00,
2013-06-25 14:05:00,77.7,71.8,29.81,West,264,4.0,13.0,82,0.00,,,1.96,meteohub,2013-06-25 19:05:00,
2013-06-25 14:10:00,78.3,72.3,29.80,West,264,5.0,13.0,82,0.00,,,1.96,meteohub,2013-06-25 19:10:00,
2013-06-25 14:15:00,78.6,72.3,29.80,South,177,8.0,10.0,81,0.00,,,1.96,meteohub,2013-06-25 19:15:00,
2013-06-25 14:20:00,78.6,72.7,29.80,WSW,249,8.0,10.0,82,0.00,,,1.96,meteohub,2013-06-25 19:20:00,
2013-06-25 14:25:00,78.8,73.2,29.80,SSE,168,3.0,10.0,83,0.00,,,1.96,meteohub,2013-06-25 19:25:00,
2013-06-25 14:30:00,79.2,72.9,29.80,SSW,213,4.0,10.0,81,0.00,,,1.96,meteohub,2013-06-25 19:30:00,
2013-06-25 14:35:00,79.0,72.3,29.79,WSW,248,5.0,8.0,80,0.00,,,1.96,meteohub,2013-06-25 19:35:00,
2013-06-25 14:40:00,79.2,72.9,29.79,SSW,197,9.0,10.0,81,0.00,,,1.96,meteohub,2013-06-25 19:40:00,
2013-06-25 14:45:00,78.6,72.3,29.79,SW,229,5.0,11.0,81,0.00,,,1.96,meteohub,2013-06-25 19:45:00,
2013-06-25 14:50:00,78.4,72.1,29.78,SSW,206,4.0,11.0,81,0.00,,,1.96,meteohub,2013-06-25 19:50:00,
2013-06-25 14:55:00,78.3,72.7,29.78,South,185,4.0,11.0,83,0.00,,,1.96,meteohub,2013-06-25 19:55:00,
2013-06-25 15:00:00,78.3,72.7,29.78,South,178,4.0,9.0,83,0.00,,,1.96,meteohub,2013-06-25 20:00:00,
2013-06-25 15:05:00,77.9,72.7,29.78,SE,131,3.0,7.0,84,0.00,,,1.96,meteohub,2013-06-25 20:05:00,
2013-06-25 15:10:00,78.1,72.5,29.78,SW,226,1.0,7.0,83,0.00,,,1.96,meteohub,2013-06-25 20:10:00,
2013-06-25 15:16:00,77.9,72.3,29.78,SSE,147,4.0,6.0,83,0.00,,,1.96,meteohub,2013-06-25 20:16:00,
2013-06-25 15:21:00,77.7,72.9,29.78,SE,137,5.0,8.0,85,0.00,,,1.96,meteohub,2013-06-25 20:21:00,
2013-06-25 15:26:00,77.9,72.7,29.78,South,187,4.0,8.0,84,0.00,,,1.96,meteohub,2013-06-25 20:26:00,
2013-06-25 15:31:00,78.1,72.5,29.78,SW,232,1.0,8.0,83,0.00,,,1.96,meteohub,2013-06-25 20:31:00,
2013-06-25 15:36:00,77.9,72.7,29.78,SSE,148,3.0,7.0,84,0.00,,,1.96,meteohub,2013-06-25 20:36:00,
2013-06-25 15:41:00,77.9,72.7,29.78,SSE,163,3.0,7.0,84,0.00,,,1.96,meteohub,2013-06-25 20:41:00,
2013-06-25 15:46:00,78.6,73.4,29.78,SW,221,2.0,6.0,84,0.00,,,1.96,meteohub,2013-06-25 20:46:00,
2013-06-25 15:51:00,78.8,73.2,29.79,SSE,159,5.0,7.0,83,0.00,,,1.96,meteohub,2013-06-25 20:51:00,
2013-06-25 15:56:00,78.6,73.0,29.79,SW,225,6.0,10.0,83,0.00,,,1.96,meteohub,2013-06-25 20:56:00,
2013-06-25 16:01:00,78.8,73.2,29.79,SW,225,6.0,10.0,83,0.00,,,1.96,meteohub,2013-06-25 21:01:00,
2013-06-25 16:06:00,79.5,73.2,29.79,SW,230,3.0,10.0,81,0.00,,,1.96,meteohub,2013-06-25 21:06:00,
2013-06-25 16:11:00,79.2,72.9,29.79,SW,225,4.0,9.0,81,0.00,,,1.96,meteohub,2013-06-25 21:11:00,
2013-06-25 16:16:00,78.6,72.7,29.78,SW,223,4.0,9.0,82,0.00,,,1.96,meteohub,2013-06-25 21:16:00,
2013-06-25 16:21:00,78.6,72.7,29.78,South,175,4.0,9.0,82,0.00,,,1.96,meteohub,2013-06-25 21:21:00,
2013-06-25 16:26:00,79.5,73.9,29.78,SE,141,4.0,9.0,83,0.00,,,1.96,meteohub,2013-06-25 21:26:00,
2013-06-25 16:31:00,79.3,72.7,29.78,SE,145,4.0,8.0,80,0.00,,,1.96,meteohub,2013-06-25 21:31:00,
2013-06-25 16:36:00,79.3,73.4,29.78,SSW,206,5.0,8.0,82,0.00,,,1.96,meteohub,2013-06-25 21:36:00,
2013-06-25 16:41:00,79.5,73.6,29.77,SSW,205,3.0,8.0,82,0.00,,,1.96,meteohub,2013-06-25 21:41:00,
2013-06-25 16:46:00,79.0,73.0,29.77,SE,140,3.0,8.0,82,0.00,,,1.96,meteohub,2013-06-25 21:46:00,
2013-06-25 16:51:00,78.4,72.9,29.77,SE,142,3.0,8.0,83,0.00,,,1.96,meteohub,2013-06-25 21:51:00,
2013-06-25 16:56:00,78.3,73.4,29.77,SSE,152,4.0,8.0,85,0.00,,,1.96,meteohub,2013-06-25 21:56:00,
2013-06-25 17:01:00,78.1,73.2,29.77,SSE,166,3.0,7.0,85,0.00,,,1.96,meteohub,2013-06-25 22:01:00,
2013-06-25 17:06:00,78.1,72.9,29.77,SE,137,3.0,8.0,84,0.00,,,1.96,meteohub,2013-06-25 22:06:00,
2013-06-25 17:11:00,78.3,73.4,29.76,SSE,161,4.0,8.0,85,0.00,,,1.96,meteohub,2013-06-25 22:11:00,
2013-06-25 17:16:00,78.8,73.6,29.76,ESE,109,2.0,7.0,84,0.00,,,1.96,meteohub,2013-06-25 22:16:00,
2013-06-25 17:21:00,79.0,73.4,29.76,SE,133,3.0,7.0,83,0.00,,,1.96,meteohub,2013-06-25 22:21:00,
2013-06-25 17:26:00,79.0,73.4,29.76,SE,128,4.0,6.0,83,0.00,,,1.96,meteohub,2013-06-25 22:26:00,
2013-06-25 17:31:00,78.6,73.8,29.76,South,175,2.0,6.0,85,0.00,,,1.96,meteohub,2013-06-25 22:31:00,
2013-06-25 17:36:00,78.4,73.2,29.77,SE,135,4.0,6.0,84,0.00,,,1.96,meteohub,2013-06-25 22:36:00,
2013-06-25 17:41:00,78.1,73.6,29.77,SW,219,2.0,6.0,86,0.00,,,1.96,meteohub,2013-06-25 22:41:00,
2013-06-25 17:46:00,77.7,73.2,29.77,SSE,158,3.0,6.0,86,0.00,,,1.96,meteohub,2013-06-25 22:46:00,
2013-06-25 17:51:00,77.5,73.0,29.76,SE,135,5.0,6.0,86,0.00,,,1.96,meteohub,2013-06-25 22:51:00,
2013-06-25 17:56:00,77.5,73.4,29.76,SSE,159,4.0,6.0,87,0.00,,,1.96,meteohub,2013-06-25 22:56:00,
2013-06-25 18:01:00,77.5,73.8,29.76,SSW,212,3.0,6.0,88,0.00,,,1.96,meteohub,2013-06-25 23:01:00,
2013-06-25 18:06:00,77.7,73.6,29.76,SSW,208,2.0,6.0,87,0.00,,,1.96,meteohub,2013-06-25 23:06:00,
2013-06-25 18:11:00,77.9,73.8,29.76,SSE,152,4.0,6.0,87,0.00,,,1.96,meteohub,2013-06-25 23:11:00,
2013-06-25 18:16:00,77.9,74.1,29.76,SSE,165,3.0,5.0,88,0.00,,,1.96,meteohub,2013-06-25 23:16:00,
2013-06-25 18:21:00,77.9,73.8,29.76,SE,132,8.0,8.0,87,0.00,,,1.96,meteohub,2013-06-25 23:21:00,
2013-06-25 18:26:00,77.5,73.8,29.76,SSE,155,4.0,8.0,88,0.00,,,1.96,meteohub,2013-06-25 23:26:00,
2013-06-25 18:31:00,77.4,73.6,29.75,SE,141,6.0,8.0,88,0.00,,,1.96,meteohub,2013-06-25 23:31:00,
2013-06-25 18:36:00,77.4,73.6,29.75,SE,127,5.0,8.0,88,0.00,,,1.96,meteohub,2013-06-25 23:36:00,
2013-06-25 18:42:00,77.2,73.4,29.75,SE,144,4.0,8.0,88,0.00,,,1.96,meteohub,2013-06-25 23:42:00,
2013-06-25 18:46:00,77.2,73.8,29.76,SSE,148,4.0,8.0,89,0.00,,,1.96,meteohub,2013-06-25 23:46:00,
2013-06-25 18:51:00,77.0,73.6,29.76,SE,137,3.0,8.0,89,0.00,,,1.96,meteohub,2013-06-25 23:51:00,
2013-06-25 18:57:00,77.0,73.8,29.76,South,176,3.0,8.0,90,0.00,,,1.96,meteohub,2013-06-25 23:57:00,
2013-06-25 19:02:00,76.8,73.6,29.77,SSE,158,3.0,7.0,90,0.00,,,1.96,meteohub,2013-06-26 00:02:00,
2013-06-25 19:07:00,76.8,73.6,29.77,South,191,2.0,5.0,90,0.00,,,0.00,meteohub,2013-06-26 00:07:00,
2013-06-25 19:12:00,76.8,73.6,29.77,SE,144,3.0,5.0,90,0.00,,,0.00,meteohub,2013-06-26 00:12:00,
2013-06-25 19:17:00,76.8,73.6,29.77,SSE,163,1.0,4.0,90,0.00,,,0.00,meteohub,2013-06-26 00:17:00,
2013-06-25 19:22:00,76.6,73.4,29.77,SSE,159,1.0,4.0,90,0.00,,,0.00,meteohub,2013-06-26 00:22:00,
2013-06-25 19:27:00,76.6,73.4,29.77,SSE,156,0.0,4.0,90,0.00,,,0.00,meteohub,2013-06-26 00:27:00,
2013-06-25 19:32:00,76.6,73.4,29.77,SE,142,0.0,3.0,90,0.00,,,0.00,meteohub,2013-06-26 00:32:00,
2013-06-25 19:37:00,76.6,73.4,29.77,SE,142,0.0,3.0,90,0.00,,,0.00,meteohub,2013-06-26 00:37:00,
2013-06-25 19:42:00,76.8,73.6,29.77,SE,142,1.0,2.0,90,0.00,,,0.00,meteohub,2013-06-26 00:42:00,
2013-06-25 19:47:00,76.6,73.4,29.77,SE,139,2.0,2.0,90,0.00,,,0.00,meteohub,2013-06-26 00:47:00,
2013-06-25 19:52:00,76.5,73.6,29.77,SE,128,1.0,3.0,91,0.00,,,0.00,meteohub,2013-06-26 00:52:00,
2013-06-25 19:57:00,76.5,73.6,29.77,SE,131,2.0,3.0,91,0.00,,,0.00,meteohub,2013-06-26 00:57:00,
2013-06-25 20:02:00,76.3,73.4,29.77,SE,145,3.0,3.0,91,0.00,,,0.00,meteohub,2013-06-26 01:02:00,
2013-06-25 20:07:00,76.3,73.4,29.76,SSE,147,4.0,4.0,91,0.00,,,0.00,meteohub,2013-06-26 01:07:00,
2013-06-25 20:12:00,76.1,73.6,29.77,SW,216,2.0,5.0,92,0.00,,,0.00,meteohub,2013-06-26 01:12:00,
2013-06-25 20:16:00,75.9,73.4,29.76,SE,135,3.0,5.0,92,0.00,,,0.00,meteohub,2013-06-26 01:16:00,
2013-06-25 20:22:00,75.9,73.4,29.76,SE,135,4.0,6.0,92,0.00,,,0.00,meteohub,2013-06-26 01:22:00,
2013-06-25 20:27:00,75.9,73.4,29.76,SSE,154,3.0,6.0,92,0.00,,,0.00,meteohub,2013-06-26 01:27:00,
2013-06-25 20:32:00,75.7,73.2,29.76,SE,133,4.0,6.0,92,0.00,,,0.00,meteohub,2013-06-26 01:32:00,
2013-06-25 20:37:00,75.6,73.4,29.76,SE,142,4.0,5.0,93,0.00,,,0.00,meteohub,2013-06-26 01:37:00,
2013-06-25 20:42:00,75.6,73.4,29.75,SSE,151,4.0,5.0,93,0.00,,,0.00,meteohub,2013-06-26 01:42:00,
2013-06-25 20:47:00,75.4,73.2,29.75,SSE,149,3.0,5.0,93,0.00,,,0.00,meteohub,2013-06-26 01:47:00,
2013-06-25 20:52:00,75.4,73.2,29.76,SSE,154,3.0,5.0,93,0.00,,,0.00,meteohub,2013-06-26 01:52:00,
2013-06-25 20:57:00,75.0,72.9,29.76,SW,220,1.0,5.0,93,0.00,,,0.00,meteohub,2013-06-26 01:57:00,
2013-06-25 21:02:00,75.0,73.2,29.76,South,178,2.0,5.0,94,0.00,,,0.00,meteohub,2013-06-26 02:02:00,
2013-06-25 21:07:00,75.0,73.2,29.76,South,178,2.0,4.0,94,0.00,,,0.00,meteohub,2013-06-26 02:07:00,
2013-06-25 21:12:00,74.8,73.0,29.76,SE,133,3.0,4.0,94,0.00,,,0.00,meteohub,2013-06-26 02:12:00,
2013-06-25 21:17:00,74.8,73.0,29.76,SSE,152,3.0,4.0,94,0.00,,,0.00,meteohub,2013-06-26 02:17:00,
2013-06-25 21:22:00,74.7,72.9,29.77,SSE,164,2.0,4.0,94,0.00,,,0.00,meteohub,2013-06-26 02:22:00,
2013-06-25 21:27:00,74.7,73.2,29.77,SSE,164,2.0,4.0,95,0.00,,,0.00,meteohub,2013-06-26 02:27:00,
2013-06-25 21:32:00,74.5,73.0,29.77,SSE,165,2.0,3.0,95,0.00,,,0.00,meteohub,2013-06-26 02:32:00,
2013-06-25 21:37:00,74.5,73.0,29.77,SSE,163,3.0,3.0,95,0.00,,,0.00,meteohub,2013-06-26 02:37:00,
2013-06-25 21:42:00,74.5,73.0,29.77,SE,141,4.0,4.0,95,0.00,,,0.00,meteohub,2013-06-26 02:42:00,
2013-06-25 21:47:00,74.5,73.0,29.76,SE,131,3.0,5.0,95,0.00,,,0.00,meteohub,2013-06-26 02:47:00,
2013-06-25 21:52:00,74.5,73.0,29.76,South,173,2.0,5.0,95,0.00,,,0.00,meteohub,2013-06-26 02:52:00,
2013-06-25 21:57:00,74.5,73.0,29.77,SSW,202,1.0,5.0,95,0.00,,,0.00,meteohub,2013-06-26 02:57:00,
2013-06-25 22:02:00,74.5,73.2,29.76,South,181,4.0,5.0,96,0.00,,,0.00,meteohub,2013-06-26 03:02:00,
2013-06-25 22:07:00,74.5,73.0,29.76,SSW,192,1.0,4.0,95,0.00,,,0.00,meteohub,2013-06-26 03:07:00,
2013-06-25 22:12:00,74.5,73.2,29.76,South,185,2.0,4.0,96,0.00,,,0.00,meteohub,2013-06-26 03:12:00,
2013-06-25 22:17:00,74.3,72.9,29.76,SSW,192,2.0,4.0,95,0.00,,,0.00,meteohub,2013-06-26 03:17:00,
2013-06-25 22:22:00,74.1,72.9,29.76,SSE,156,3.0,3.0,96,0.00,,,0.00,meteohub,2013-06-26 03:22:00,
2013-06-25 22:27:00,74.1,72.9,29.76,SW,220,1.0,4.0,96,0.00,,,0.00,meteohub,2013-06-26 03:27:00,
2013-06-25 22:32:00,73.9,72.7,29.77,SW,225,2.0,5.0,96,0.00,,,0.00,meteohub,2013-06-26 03:32:00,
2013-06-25 22:37:00,73.9,72.7,29.76,SE,128,3.0,5.0,96,0.00,,,0.00,meteohub,2013-06-26 03:37:00,
2013-06-25 22:42:00,73.9,72.7,29.76,SE,144,4.0,5.0,96,0.00,,,0.00,meteohub,2013-06-26 03:42:00,
2013-06-25 22:47:00,73.9,72.7,29.76,SE,135,3.0,5.0,96,0.00,,,0.00,meteohub,2013-06-26 03:47:00,
2013-06-25 22:52:00,73.9,72.7,29.76,SE,126,4.0,5.0,96,0.00,,,0.00,meteohub,2013-06-26 03:52:00,
2013-06-25 22:57:00,73.8,72.5,29.76,SE,130,3.0,5.0,96,0.00,,,0.00,meteohub,2013-06-26 03:57:00,
2013-06-25 23:01:00,73.8,72.5,29.76,ESE,123,3.0,5.0,96,0.00,,,0.00,meteohub,2013-06-26 04:01:00,
2013-06-25 23:03:00,73.8,72.5,29.76,SE,124,3.0,5.0,96,0.00,,,0.00,meteohub,2013-06-26 04:03:00,
2013-06-25 23:08:00,73.8,72.5,29.76,SE,135,2.0,5.0,96,0.00,,,0.00,meteohub,2013-06-26 04:08:00,
2013-06-25 23:13:00,73.8,72.5,29.76,SE,133,3.0,4.0,96,0.00,,,0.00,meteohub,2013-06-26 04:13:00,
2013-06-25 23:18:00,73.6,72.3,29.76,SE,130,3.0,4.0,96,0.00,,,0.00,meteohub,2013-06-26 04:18:00,
2013-06-25 23:23:00,73.6,72.3,29.76,SE,128,3.0,4.0,96,0.00,,,0.00,meteohub,2013-06-26 04:23:00,
2013-06-25 23:28:00,73.2,72.0,29.76,SSE,154,2.0,4.0,96,0.00,,,0.00,meteohub,2013-06-26 04:28:00,
2013-06-25 23:33:00,73.2,72.0,29.76,SSE,156,3.0,4.0,96,0.00,,,0.00,meteohub,2013-06-26 04:33:00,
2013-06-25 23:38:00,73.2,72.3,29.76,SSE,154,2.0,4.0,97,0.00,,,0.00,meteohub,2013-06-26 04:38:00,
2013-06-25 23:43:00,73.0,72.1,29.75,SSW,202,1.0,3.0,97,0.00,,,0.00,meteohub,2013-06-26 04:43:00,
2013-06-25 23:48:00,73.0,72.1,29.75,SSE,149,2.0,3.0,97,0.00,,,0.00,meteohub,2013-06-26 04:48:00,
2013-06-25 23:53:00,73.0,72.1,29.75,SSE,150,2.0,4.0,97,0.00,,,0.00,meteohub,2013-06-26 04:53:00,
2013-06-25 23:58:00,73.0,72.1,29.75,SE,135,3.0,4.0,97,0.00,,,0.00,meteohub,2013-06-26 04:58:00,